createdAt,value
2022-10-11T00:02:13.545Z,6.82
2022-10-11T00:04:40.571Z,6.60
2022-10-11T00:07:07.613Z,6.55
2022-10-11T00:09:34.703Z,6.97
2022-10-11T00:12:01.592Z,6.45
2022-10-11T00:14:28.805Z,6.53
2022-10-11T00:16:55.887Z,6.28
2022-10-11T00:19:22.950Z,6.47
2022-10-11T00:21:49.930Z,6.78
2022-10-11T00:24:17.092Z,6.03
2022-10-11T00:26:46.839Z,6.45
2022-10-11T00:29:14.496Z,6.45
2022-10-11T00:31:41.461Z,7.20
2022-10-11T00:34:10.168Z,6.30
2022-10-11T00:36:37.056Z,7.50
2022-10-11T00:39:04.621Z,6.73
2022-10-11T00:41:31.528Z,7.23
2022-10-11T00:44:25.005Z,7.03
2022-10-11T00:47:04.075Z,7.03
2022-10-11T00:49:43.088Z,7.25
2022-10-11T00:52:31.564Z,7.18
2022-10-11T00:55:10.543Z,6.78
2022-10-11T00:57:41.674Z,7.17
2022-10-11T01:00:12.060Z,7.37
2022-10-11T01:02:40.361Z,7.03
2022-10-11T01:05:28.664Z,6.17
2022-10-11T01:07:56.599Z,6.53
2022-10-11T01:10:23.572Z,6.97
2022-10-11T01:13:20.797Z,7.00
2022-10-11T01:16:04.731Z,6.45
2022-10-11T01:18:49.079Z,7.43
2022-10-11T01:21:33.566Z,6.50
2022-10-11T01:24:44.639Z,6.80
2022-10-11T01:27:32.005Z,7.50
2022-10-11T01:30:36.707Z,7.00
2022-10-11T01:33:45.564Z,6.70
2022-10-11T01:36:37.970Z,7.03
2022-10-11T01:39:21.315Z,6.90
2022-10-11T01:41:53.663Z,6.60
2022-10-11T01:44:20.871Z,7.07
2022-10-11T01:46:48.283Z,7.27
2022-10-11T01:49:15.153Z,7.40
2022-10-11T01:51:55.260Z,7.00
2022-10-11T01:55:08.618Z,7.60
2022-10-11T01:58:21.789Z,6.83
2022-10-11T02:01:33.938Z,7.47
2022-10-11T02:04:28.913Z,7.37
2022-10-11T02:07:16.412Z,6.50
2022-10-11T02:09:50.187Z,7.37
2022-10-11T02:12:47.950Z,7.23
2022-10-11T02:15:17.528Z,7.90
2022-10-11T02:17:51.479Z,7.10
2022-10-11T02:20:22.140Z,7.17
2022-10-11T02:22:57.904Z,7.00
2022-10-11T02:25:29.085Z,7.33
2022-10-11T02:28:01.098Z,7.47
2022-10-11T02:30:30.992Z,7.47
2022-10-11T02:32:59.325Z,7.30
2022-10-11T02:35:29.995Z,7.50
2022-10-11T02:38:15.829Z,7.70
2022-10-11T02:40:48.450Z,6.77
2022-10-11T02:43:28.973Z,7.15
2022-10-11T02:46:01.345Z,6.87
2022-10-11T02:48:29.472Z,7.33
2022-10-11T02:50:58.367Z,7.57
2022-10-11T02:53:26.945Z,8.00
2022-10-11T02:55:55.438Z,7.93
2022-10-11T02:58:23.605Z,8.03
2022-10-11T03:00:50.626Z,8.47
2022-10-11T03:03:17.502Z,7.90
2022-10-11T03:05:45.062Z,8.50
2022-10-11T03:08:14.704Z,9.10
2022-10-11T03:10:43.087Z,7.87
2022-10-11T03:13:10.028Z,8.57
2022-10-11T03:15:36.989Z,9.00
2022-10-11T03:18:04.007Z,7.93
2022-10-11T03:20:30.931Z,8.07
2022-10-11T03:22:57.843Z,7.80
2022-10-11T03:25:24.892Z,8.35
2022-10-11T03:27:52.345Z,8.27
2022-10-11T03:30:20.172Z,7.93
2022-10-11T03:32:47.067Z,7.40
2022-10-11T03:35:14.011Z,8.07
2022-10-11T03:37:40.869Z,8.77
2022-10-11T03:40:09.997Z,8.57
2022-10-11T03:42:37.631Z,9.20
2022-10-11T03:45:08.186Z,9.53
2022-10-11T03:47:39.541Z,9.23
2022-10-11T03:50:08.797Z,9.10
2022-10-11T03:52:36.671Z,9.77
2022-10-11T03:55:04.622Z,8.93
2022-10-11T03:57:31.535Z,9.23
2022-10-11T03:59:58.455Z,9.53
2022-10-11T04:02:25.397Z,9.17
2022-10-11T04:04:52.323Z,8.83
2022-10-11T04:07:19.338Z,9.67
2022-10-11T04:09:46.236Z,10.32
2022-10-11T04:12:13.215Z,9.27
2022-10-11T04:14:40.636Z,8.90
2022-10-11T04:17:07.540Z,8.97
2022-10-11T04:19:36.777Z,8.50
2022-10-11T04:22:05.362Z,8.38
2022-10-11T04:24:32.301Z,8.60
2022-10-11T04:26:59.191Z,8.53
2022-10-11T04:29:31.444Z,9.03
2022-10-11T04:31:59.724Z,8.77
2022-10-11T04:34:26.700Z,8.97
2022-10-11T04:36:53.581Z,8.83
2022-10-11T04:39:20.775Z,9.67
2022-10-11T04:41:47.648Z,9.20
2022-10-11T04:44:14.562Z,9.77
2022-10-11T04:46:41.511Z,9.77
2022-10-11T04:49:08.805Z,10.30
2022-10-11T04:51:35.750Z,10.33
2022-10-11T04:54:02.643Z,9.73
2022-10-11T04:56:30.657Z,10.57
2022-10-11T04:58:57.773Z,10.73
2022-10-11T05:01:24.722Z,10.10
2022-10-11T05:03:51.613Z,9.95
2022-10-11T05:06:18.773Z,9.30
2022-10-11T05:08:45.691Z,9.37
2022-10-11T05:11:16.138Z,9.33
2022-10-11T05:13:44.543Z,9.40
2022-10-11T05:16:12.706Z,9.43
2022-10-11T05:18:40.163Z,9.13
2022-10-11T05:21:17.425Z,9.43
2022-10-11T05:23:45.150Z,9.50
2022-10-11T05:26:12.204Z,11.13
2022-10-11T05:28:39.159Z,12.33
2022-10-11T05:31:06.391Z,11.87
2022-10-11T05:33:34.253Z,11.77
2022-10-11T05:36:01.321Z,11.37
2022-10-11T05:38:28.285Z,11.33
2022-10-11T05:40:55.166Z,11.00
2022-10-11T05:43:22.063Z,10.68
2022-10-11T05:45:49.894Z,11.00
2022-10-11T05:48:16.868Z,10.38
2022-10-11T05:50:43.861Z,10.43
2022-10-11T05:53:10.897Z,10.37
2022-10-11T05:55:40.127Z,10.77
2022-10-11T05:58:08.720Z,10.60
2022-10-11T06:00:38.084Z,10.47
2022-10-11T06:03:06.730Z,10.13
2022-10-11T06:05:35.245Z,11.13
2022-10-11T06:08:04.667Z,10.07
2022-10-11T06:10:31.713Z,11.00
2022-10-11T06:12:58.629Z,10.70
2022-10-11T06:15:25.611Z,10.07
2022-10-11T06:17:53.094Z,11.33
2022-10-11T06:20:20.282Z,9.93
2022-10-11T06:22:47.170Z,11.23
2022-10-11T06:25:14.053Z,10.88
2022-10-11T06:27:40.973Z,11.02
2022-10-11T06:30:08.811Z,10.35
2022-10-11T06:32:35.738Z,10.27
2022-10-11T06:35:03.481Z,11.48
2022-10-11T06:37:30.756Z,10.68
2022-10-11T06:39:57.707Z,10.32
2022-10-11T06:42:24.602Z,10.88
2022-10-11T06:44:51.719Z,11.23
2022-10-11T06:47:18.655Z,10.90
2022-10-11T06:49:45.598Z,10.98
2022-10-11T06:52:12.547Z,11.45
2022-10-11T06:54:44.575Z,11.18
2022-10-11T06:57:12.157Z,10.93
2022-10-11T06:59:39.069Z,12.13
2022-10-11T07:02:06.061Z,11.90
2022-10-11T07:04:33.991Z,11.55
2022-10-11T07:07:01.116Z,11.68
2022-10-11T07:09:28.094Z,11.60
2022-10-11T07:11:55.044Z,12.73
2022-10-11T07:14:21.910Z,11.90
2022-10-11T07:16:48.828Z,13.02
2022-10-11T07:19:15.852Z,12.55
2022-10-11T07:21:42.912Z,11.65
2022-10-11T07:24:09.893Z,11.07
2022-10-11T07:26:38.579Z,12.23
2022-10-11T07:29:08.656Z,13.43
2022-10-11T07:31:39.102Z,12.77
2022-10-11T07:34:06.077Z,14.20
2022-10-11T07:36:33.041Z,12.65
2022-10-11T07:39:00.022Z,13.88
2022-10-11T07:41:27.003Z,13.95
2022-10-11T07:43:54.990Z,13.07
2022-10-11T07:46:22.334Z,12.65
2022-10-11T07:48:52.326Z,13.43
2022-10-11T07:51:22.361Z,12.18
2022-10-11T07:53:52.464Z,12.68
2022-10-11T07:56:24.069Z,11.13
2022-10-11T07:58:57.347Z,11.57
2022-10-11T08:01:25.379Z,11.10
2022-10-11T08:03:53.724Z,11.35
2022-10-11T08:06:26.215Z,11.25
2022-10-11T08:08:53.524Z,10.88
2022-10-11T08:11:29.455Z,10.57
2022-10-11T08:13:58.130Z,11.35
2022-10-11T08:16:25.477Z,10.75
2022-10-11T08:18:54.428Z,10.02
2022-10-11T08:21:21.425Z,10.32
2022-10-11T08:23:48.442Z,9.55
2022-10-11T08:26:15.453Z,9.50
2022-10-11T08:28:42.521Z,9.93
2022-10-11T08:31:13.973Z,9.82
2022-10-11T08:33:41.283Z,9.18
2022-10-11T08:36:09.418Z,9.35
2022-10-11T08:38:37.752Z,9.25
2022-10-11T08:41:25.569Z,9.27
2022-10-11T08:44:18.642Z,9.15
2022-10-11T08:46:54.763Z,9.98
2022-10-11T08:49:29.692Z,9.57
2022-10-11T08:52:04.504Z,9.27
2022-10-11T08:54:44.829Z,9.27
2022-10-11T08:57:21.681Z,8.95
2022-10-11T08:59:57.171Z,9.07
2022-10-11T09:03:08.140Z,8.95
2022-10-11T09:05:52.745Z,8.82
2022-10-11T09:08:56.542Z,8.70
2022-10-11T09:11:49.481Z,8.20
2022-10-11T09:14:58.255Z,8.57
2022-10-11T09:18:03.606Z,8.30
2022-10-11T09:21:08.396Z,7.15
2022-10-11T09:24:04.532Z,7.88
2022-10-11T09:26:39.559Z,8.15
2022-10-11T09:29:44.156Z,7.85
2022-10-11T09:33:15.861Z,7.40
2022-10-11T09:35:50.172Z,7.13
2022-10-11T09:38:51.113Z,6.13
2022-10-11T09:41:53.688Z,5.50
2022-10-11T09:44:24.412Z,6.30
2022-10-11T09:46:55.368Z,5.80
2022-10-11T09:49:29.629Z,6.80
2022-10-11T09:52:01.010Z,6.13
2022-10-11T09:54:43.269Z,5.75
2022-10-11T09:57:32.198Z,5.22
2022-10-11T10:00:21.102Z,5.18
2022-10-11T10:02:51.574Z,5.63
2022-10-11T10:05:29.105Z,4.60
2022-10-11T10:08:09.780Z,5.70
2022-10-11T10:10:43.744Z,5.57
2022-10-11T10:13:24.133Z,5.07
2022-10-11T10:15:56.167Z,5.00
2022-10-11T10:18:33.340Z,5.93
2022-10-11T10:21:01.108Z,4.70
2022-10-11T10:23:35.021Z,4.88
2022-10-11T10:26:20.645Z,4.57
2022-10-11T10:29:07.947Z,4.43
2022-10-11T10:32:13.325Z,4.30
2022-10-11T10:34:55.184Z,5.25
2022-10-11T10:37:44.110Z,4.82
2022-10-11T10:40:32.706Z,3.85
2022-10-11T10:42:59.581Z,4.07
2022-10-11T10:45:54.313Z,3.22
2022-10-11T10:49:18.722Z,2.95
2022-10-11T10:51:55.123Z,2.58
2022-10-11T10:54:47.651Z,3.20
2022-10-11T10:58:16.331Z,3.00
2022-10-11T11:01:10.840Z,3.10
2022-10-11T11:03:57.735Z,1.77
2022-10-11T11:06:38.071Z,2.63
2022-10-11T11:10:17.319Z,1.73
2022-10-11T11:13:33.433Z,3.15
2022-10-11T11:16:20.906Z,2.35
2022-10-11T11:19:42.203Z,2.13
2022-10-11T11:22:21.140Z,2.63
2022-10-11T11:25:03.166Z,2.38
2022-10-11T11:28:13.381Z,2.20
2022-10-11T11:30:51.069Z,2.80
2022-10-11T11:33:32.671Z,2.30
2022-10-11T11:36:09.002Z,1.67
2022-10-11T11:38:48.911Z,1.80
2022-10-11T11:41:33.342Z,1.80
2022-10-11T11:44:23.803Z,1.55
2022-10-11T11:47:11.821Z,1.40
2022-10-11T11:49:45.391Z,1.98
2022-10-11T11:52:25.340Z,1.63
2022-10-11T11:55:24.748Z,1.40
2022-10-11T11:58:10.494Z,1.60
2022-10-11T12:00:58.896Z,1.77
2022-10-11T12:03:32.039Z,1.30
2022-10-11T12:06:14.320Z,1.67
2022-10-11T12:09:03.989Z,1.77
2022-10-11T12:11:57.739Z,1.67
2022-10-11T12:14:34.179Z,2.00
2022-10-11T12:17:19.576Z,2.60
2022-10-11T12:20:10.355Z,2.00
2022-10-11T12:22:51.876Z,2.08
2022-10-11T12:25:21.901Z,1.45
2022-10-11T12:27:55.009Z,1.70
2022-10-11T12:30:55.524Z,1.88
2022-10-11T12:33:52.180Z,2.20
2022-10-11T12:36:28.720Z,2.03
2022-10-11T12:39:20.589Z,2.50
2022-10-11T12:41:47.476Z,1.95
2022-10-11T12:44:30.855Z,1.85
2022-10-11T12:46:57.965Z,1.90
2022-10-11T12:49:33.730Z,2.00
2022-10-11T12:52:22.215Z,1.73
2022-10-11T12:55:26.993Z,1.85
2022-10-11T12:58:28.044Z,1.65
2022-10-11T13:00:55.737Z,1.40
2022-10-11T13:03:45.641Z,1.40
2022-10-11T13:06:29.461Z,1.95
2022-10-11T13:09:32.326Z,1.42
2022-10-11T13:12:21.520Z,1.35
2022-10-11T13:15:05.367Z,1.00
2022-10-11T13:17:38.708Z,1.98
2022-10-11T13:20:25.257Z,1.45
2022-10-11T13:22:55.618Z,1.80
2022-10-11T13:25:29.506Z,1.63
2022-10-11T13:27:59.544Z,1.85
2022-10-11T13:30:34.242Z,2.20
2022-10-11T13:33:19.767Z,2.00
2022-10-11T13:35:48.181Z,1.90
2022-10-11T13:38:26.922Z,1.80
2022-10-11T13:40:55.841Z,1.60
2022-10-11T13:43:27.481Z,2.53
2022-10-11T13:45:56.264Z,5.60
2022-10-11T13:48:25.236Z,2.80
2022-10-11T13:51:27.966Z,2.65
2022-10-11T13:54:05.121Z,2.72
2022-10-11T13:56:38.427Z,2.83
2022-10-11T13:59:05.872Z,2.20
2022-10-11T14:01:44.599Z,2.33
2022-10-11T14:04:15.550Z,1.83
2022-10-11T14:06:54.789Z,2.17
2022-10-11T14:09:35.480Z,2.25
2022-10-11T14:12:35.647Z,3.78
2022-10-11T14:15:26.430Z,2.97
2022-10-11T14:17:53.386Z,5.28
2022-10-11T14:20:30.874Z,3.30
2022-10-11T14:23:00.137Z,2.75
2022-10-11T14:25:27.028Z,4.00
2022-10-11T14:27:54.696Z,3.30
2022-10-11T14:30:25.581Z,3.67
2022-10-11T14:32:55.314Z,2.50
2022-10-11T14:35:31.713Z,2.47
2022-10-11T14:37:59.101Z,1.98
2022-10-11T14:40:30.344Z,2.40
2022-10-11T14:42:57.386Z,2.38
2022-10-11T14:45:24.428Z,2.10
2022-10-11T14:47:51.873Z,2.60
2022-10-11T14:50:47.828Z,2.17
2022-10-11T14:53:15.278Z,2.40
2022-10-11T14:55:43.167Z,3.75
2022-10-11T14:58:11.911Z,3.35
2022-10-11T15:00:39.190Z,3.50
2022-10-11T15:03:07.426Z,2.65
2022-10-11T15:05:35.427Z,2.50
2022-10-11T15:08:04.901Z,2.20
2022-10-11T15:10:38.520Z,2.33
2022-10-11T15:13:07.391Z,1.98
2022-10-11T15:15:37.555Z,1.83
2022-10-11T15:18:07.238Z,2.13
2022-10-11T15:20:41.615Z,1.90
2022-10-11T15:23:10.379Z,2.60
2022-10-11T15:25:40.201Z,2.45
2022-10-11T15:28:08.218Z,2.70
2022-10-11T15:30:41.391Z,2.90
2022-10-11T15:33:09.202Z,3.00
2022-10-11T15:35:36.100Z,3.45
2022-10-11T15:38:03.611Z,4.65
2022-10-11T15:40:35.436Z,7.10
2022-10-11T15:43:03.355Z,8.15
2022-10-11T15:45:30.762Z,8.63
2022-10-11T15:47:58.408Z,5.95
2022-10-11T15:50:34.635Z,5.38
2022-10-11T15:53:02.627Z,5.30
2022-10-11T15:55:30.835Z,5.50
2022-10-11T15:57:57.745Z,6.82
2022-10-11T16:00:25.805Z,5.05
2022-10-11T16:02:53.655Z,6.32
2022-10-11T16:05:24.329Z,6.22
2022-10-11T16:07:52.687Z,5.57
2022-10-11T16:10:20.891Z,6.43
2022-10-11T16:12:48.205Z,7.65
2022-10-11T16:15:15.606Z,10.07
2022-10-11T16:17:42.576Z,10.48
2022-10-11T16:20:09.505Z,13.50
2022-10-11T16:22:36.653Z,12.85
2022-10-11T16:25:04.877Z,17.98
2022-10-11T16:27:32.265Z,14.40
2022-10-11T16:30:00.838Z,9.40
2022-10-11T16:32:28.200Z,10.07
2022-10-11T16:34:55.143Z,7.90
2022-10-11T16:37:22.066Z,5.68
2022-10-11T16:39:48.974Z,6.65
2022-10-11T16:42:15.853Z,7.63
2022-10-11T16:44:42.742Z,9.18
2022-10-11T16:47:09.639Z,11.77
2022-10-11T16:49:37.433Z,11.82
2022-10-11T16:52:04.632Z,11.50
2022-10-11T16:54:32.191Z,14.48
2022-10-11T16:57:00.113Z,14.30
2022-10-11T16:59:27.493Z,12.10
2022-10-11T17:01:55.114Z,10.43
2022-10-11T17:04:22.371Z,8.27
2022-10-11T17:06:49.657Z,7.30
2022-10-11T17:09:17.146Z,9.70
2022-10-11T17:11:44.237Z,13.10
2022-10-11T17:14:13.211Z,15.02
2022-10-11T17:16:40.537Z,13.30
2022-10-11T17:19:12.369Z,12.90
2022-10-11T17:21:39.925Z,11.00
2022-10-11T17:24:07.592Z,9.70
2022-10-11T17:26:34.951Z,9.18
2022-10-11T17:29:02.392Z,9.05
2022-10-11T17:31:30.119Z,8.32
2022-10-11T17:34:01.351Z,9.50
2022-10-11T17:36:32.261Z,10.70
2022-10-11T17:39:21.696Z,11.35
2022-10-11T17:41:49.746Z,16.00
2022-10-11T17:44:19.451Z,14.88
2022-10-11T17:46:47.288Z,11.65
2022-10-11T17:49:14.664Z,11.10
2022-10-11T17:51:42.374Z,11.95
2022-10-11T17:54:12.785Z,12.13
2022-10-11T17:56:41.573Z,13.40
2022-10-11T17:59:15.039Z,13.75
2022-10-11T18:01:41.982Z,12.23
2022-10-11T18:04:16.255Z,12.32
2022-10-11T18:06:45.646Z,12.55
2022-10-11T18:09:15.316Z,14.27
2022-10-11T18:11:43.151Z,16.27
2022-10-11T18:14:10.249Z,18.40
2022-10-11T18:16:38.440Z,27.20
2022-10-11T18:19:09.780Z,22.88
2022-10-11T18:21:37.793Z,18.15
2022-10-11T18:24:12.993Z,16.33
2022-10-11T18:26:39.956Z,14.32
2022-10-11T18:29:07.074Z,13.13
2022-10-11T18:31:35.267Z,11.27
2022-10-11T18:34:04.337Z,11.77
2022-10-11T18:36:32.821Z,13.05
2022-10-11T18:39:04.011Z,14.93
2022-10-11T18:41:32.893Z,17.35
2022-10-11T18:44:04.225Z,19.38
2022-10-11T18:46:31.532Z,18.00
2022-10-11T18:49:01.778Z,20.37
2022-10-11T18:51:36.010Z,22.13
2022-10-11T18:54:03.342Z,21.40
2022-10-11T18:56:31.987Z,20.23
2022-10-11T18:58:59.335Z,18.80
2022-10-11T19:01:30.666Z,16.90
2022-10-11T19:04:00.184Z,15.73
2022-10-11T19:06:37.973Z,14.32
2022-10-11T19:09:07.491Z,15.15
2022-10-11T19:11:34.602Z,14.37
2022-10-11T19:14:07.104Z,15.93
2022-10-11T19:16:38.378Z,18.13
2022-10-11T19:19:06.549Z,17.47
2022-10-11T19:21:33.620Z,18.17
2022-10-11T19:24:00.576Z,18.00
2022-10-11T19:26:33.388Z,17.33
2022-10-11T19:29:14.663Z,16.57
2022-10-11T19:31:44.975Z,17.00
2022-10-11T19:34:12.354Z,16.38
2022-10-11T19:36:42.306Z,16.40
2022-10-11T19:39:14.202Z,18.83
2022-10-11T19:41:41.855Z,20.67
2022-10-11T19:44:09.778Z,22.43
2022-10-11T19:46:53.130Z,19.57
2022-10-11T19:49:24.769Z,20.93
2022-10-11T19:51:53.771Z,18.73
2022-10-11T19:54:20.720Z,18.47
2022-10-11T19:56:47.839Z,18.13
2022-10-11T19:59:15.533Z,16.77
2022-10-11T20:01:45.499Z,17.03
2022-10-11T20:04:39.432Z,16.37
2022-10-11T20:07:02.072Z,15.97
2022-10-11T20:09:30.434Z,17.57
2022-10-11T20:11:58.413Z,16.42
2022-10-11T20:14:25.421Z,17.97
2022-10-11T20:16:52.558Z,20.73
2022-10-11T20:19:19.537Z,28.30
2022-10-11T20:21:47.450Z,31.43
2022-10-11T20:24:14.411Z,31.13
2022-10-11T20:26:41.292Z,28.27
2022-10-11T20:29:08.175Z,29.23
2022-10-11T20:31:40.803Z,26.10
2022-10-11T20:34:07.963Z,24.70
2022-10-11T20:36:36.638Z,22.57
2022-10-11T20:39:05.341Z,21.13
2022-10-11T20:41:37.156Z,19.73
2022-10-11T20:44:04.802Z,21.23
2022-10-11T20:46:35.884Z,21.27
2022-10-11T20:49:09.484Z,21.73
2022-10-11T20:51:38.909Z,20.27
2022-10-11T20:54:06.143Z,18.90
2022-10-11T20:56:33.974Z,19.57
2022-10-11T20:59:01.360Z,16.90
2022-10-11T21:01:32.338Z,16.23
2022-10-11T21:04:01.405Z,17.30
2022-10-11T21:06:29.910Z,14.67
2022-10-11T21:08:59.019Z,15.03
2022-10-11T21:11:33.447Z,13.73
2022-10-11T21:14:03.501Z,14.23
2022-10-11T21:16:30.796Z,13.93
2022-10-11T21:18:59.857Z,14.57
2022-10-11T21:21:29.082Z,14.73
2022-10-11T21:23:58.737Z,18.80
2022-10-11T21:26:27.570Z,27.20
2022-10-11T21:28:54.810Z,46.40
2022-10-11T21:31:23.073Z,32.47
2022-10-11T21:33:50.237Z,28.97
2022-10-11T21:36:20.758Z,27.40
2022-10-11T21:38:48.353Z,25.00
2022-10-11T21:41:21.443Z,25.53
2022-10-11T21:43:49.061Z,24.00
2022-10-11T21:46:22.604Z,23.77
2022-10-11T21:48:50.212Z,25.83
2022-10-11T21:51:30.833Z,24.50
2022-10-11T21:54:02.366Z,26.60
2022-10-11T21:56:30.399Z,27.67
2022-10-11T21:58:57.496Z,28.70
2022-10-11T22:01:24.563Z,29.20
2022-10-11T22:03:53.890Z,27.10
2022-10-11T22:06:21.649Z,26.83
2022-10-11T22:08:50.031Z,22.80
2022-10-11T22:11:17.592Z,19.80
2022-10-11T22:13:44.800Z,16.70
2022-10-11T22:16:13.956Z,15.63
2022-10-11T22:18:41.967Z,14.73
2022-10-11T22:21:13.717Z,13.50
2022-10-11T22:23:42.039Z,13.37
2022-10-11T22:26:13.516Z,12.77
2022-10-11T22:28:40.894Z,13.10
2022-10-11T22:31:10.104Z,11.80
2022-10-11T22:33:37.156Z,11.93
2022-10-11T22:36:10.305Z,13.37
2022-10-11T22:38:40.247Z,13.00
2022-10-11T22:41:07.431Z,13.27
2022-10-11T22:43:34.301Z,13.30
2022-10-11T22:46:01.494Z,14.27
2022-10-11T22:48:28.381Z,14.03
2022-10-11T22:50:55.257Z,13.47
2022-10-11T22:53:22.292Z,12.90
2022-10-11T22:55:49.162Z,12.13
2022-10-11T22:58:16.065Z,11.47
2022-10-11T23:00:43.269Z,12.60
2022-10-11T23:03:14.932Z,13.43
2022-10-11T23:05:42.300Z,12.77
2022-10-11T23:08:09.701Z,13.43
2022-10-11T23:10:40.264Z,14.77
2022-10-11T23:13:07.357Z,18.43
2022-10-11T23:15:34.282Z,17.70
2022-10-11T23:18:01.235Z,15.03
2022-10-11T23:20:28.112Z,15.20
2022-10-11T23:22:54.995Z,15.53
2022-10-11T23:25:21.863Z,14.07
2022-10-11T23:27:48.726Z,14.33
2022-10-11T23:30:15.854Z,14.50
2022-10-11T23:32:42.769Z,14.77
2022-10-11T23:35:09.905Z,13.27
2022-10-11T23:37:37.110Z,14.13
2022-10-11T23:40:05.188Z,14.63
2022-10-11T23:42:32.058Z,15.37
2022-10-11T23:44:59.278Z,13.40
2022-10-11T23:47:26.147Z,13.73
2022-10-11T23:49:53.143Z,13.47
2022-10-11T23:52:20.035Z,12.93
2022-10-11T23:54:46.934Z,12.43
2022-10-11T23:57:13.863Z,12.97
2022-10-11T23:59:40.747Z,14.13
